createdAt,value
2017-11-27T00:02:15.853Z,10.63
2017-11-27T00:04:43.745Z,11.95
2017-11-27T00:07:11.242Z,12.05
2017-11-27T00:09:39.469Z,10.93
2017-11-27T00:12:06.990Z,12.00
2017-11-27T00:14:34.482Z,11.50
2017-11-27T00:17:02.710Z,12.05
2017-11-27T00:19:30.285Z,11.43
2017-11-27T00:21:58.513Z,10.90
2017-11-27T00:24:26.092Z,11.20
2017-11-27T00:26:54.350Z,12.65
2017-11-27T00:29:22.607Z,10.55
2017-11-27T00:31:50.841Z,12.35
2017-11-27T00:34:18.416Z,12.30
2017-11-27T00:36:46.667Z,13.20
2017-11-27T00:39:14.895Z,11.05
2017-11-27T00:41:42.354Z,10.07
2017-11-27T00:44:09.918Z,11.77
2017-11-27T00:46:38.149Z,10.25
2017-11-27T00:49:05.619Z,12.18
2017-11-27T00:51:33.894Z,11.90
2017-11-27T00:54:02.121Z,11.77
2017-11-27T00:56:29.581Z,10.98
2017-11-27T00:58:57.819Z,13.62
2017-11-27T01:01:25.305Z,13.27
2017-11-27T01:03:52.781Z,11.05
2017-11-27T01:06:20.245Z,11.32
2017-11-27T01:08:47.811Z,11.43
2017-11-27T01:11:16.070Z,11.98
2017-11-27T01:13:44.335Z,11.48
2017-11-27T01:16:12.599Z,11.45
2017-11-27T01:18:40.833Z,11.75
2017-11-27T01:21:08.303Z,11.32
2017-11-27T01:23:36.554Z,11.25
2017-11-27T01:26:04.781Z,11.43
2017-11-27T01:28:32.258Z,11.20
2017-11-27T01:31:00.488Z,13.18
2017-11-27T01:33:29.156Z,11.60
2017-11-27T01:35:56.730Z,10.43
2017-11-27T01:38:24.970Z,10.82
2017-11-27T01:40:52.529Z,11.20
2017-11-27T01:43:20.757Z,10.95
2017-11-27T01:45:48.329Z,11.10
2017-11-27T01:48:15.793Z,10.82
2017-11-27T01:50:43.316Z,10.63
2017-11-27T01:53:11.566Z,10.63
2017-11-27T01:55:39.026Z,11.05
2017-11-27T01:58:07.250Z,9.90
2017-11-27T02:00:34.723Z,9.68
2017-11-27T02:03:02.962Z,9.82
2017-11-27T02:05:30.526Z,10.20
2017-11-27T02:07:58.761Z,10.02
2017-11-27T02:10:26.226Z,12.00
2017-11-27T02:12:54.490Z,9.50
2017-11-27T02:15:22.715Z,11.25
2017-11-27T02:17:50.186Z,12.05
2017-11-27T02:20:18.445Z,12.00
2017-11-27T02:22:46.678Z,11.40
2017-11-27T02:25:14.153Z,12.50
2017-11-27T02:27:42.395Z,11.75
2017-11-27T02:30:09.862Z,13.52
2017-11-27T02:32:38.088Z,13.73
2017-11-27T02:35:05.587Z,13.25
2017-11-27T02:37:33.077Z,12.85
2017-11-27T02:40:00.557Z,12.57
2017-11-27T02:42:28.039Z,13.85
2017-11-27T02:44:55.523Z,14.15
2017-11-27T02:47:23.750Z,12.70
2017-11-27T02:49:51.238Z,13.55
2017-11-27T02:52:18.729Z,13.25
2017-11-27T02:54:46.186Z,12.57
2017-11-27T02:57:13.750Z,12.95
2017-11-27T02:59:42.113Z,12.68
2017-11-27T03:02:10.341Z,12.43
2017-11-27T03:04:37.818Z,12.40
2017-11-27T03:07:06.058Z,12.02
2017-11-27T03:09:33.522Z,12.93
2017-11-27T03:12:01.785Z,13.00
2017-11-27T03:14:30.039Z,13.75
2017-11-27T03:16:58.291Z,12.77
2017-11-27T03:19:25.755Z,12.18
2017-11-27T03:21:53.217Z,13.45
2017-11-27T03:24:20.693Z,11.88
2017-11-27T03:26:48.162Z,13.35
2017-11-27T03:29:16.390Z,12.85
2017-11-27T03:31:43.865Z,10.95
2017-11-27T03:34:12.142Z,11.10
2017-11-27T03:36:39.623Z,12.80
2017-11-27T03:39:07.114Z,10.48
2017-11-27T03:41:35.965Z,11.57
2017-11-27T03:44:03.430Z,12.20
2017-11-27T03:46:31.667Z,12.20
2017-11-27T03:48:59.226Z,11.45
2017-11-27T03:51:27.489Z,11.88
2017-11-27T03:53:55.753Z,11.90
2017-11-27T03:56:23.982Z,11.25
2017-11-27T03:58:51.461Z,10.65
2017-11-27T04:01:19.710Z,10.30
2017-11-27T04:03:48.077Z,10.68
2017-11-27T04:06:16.337Z,11.88
2017-11-27T04:08:44.593Z,10.55
2017-11-27T04:11:12.860Z,11.30
2017-11-27T04:13:41.106Z,10.45
2017-11-27T04:16:08.659Z,11.25
2017-11-27T04:18:36.890Z,11.30
2017-11-27T04:21:04.391Z,11.70
2017-11-27T04:23:31.906Z,12.00
2017-11-27T04:26:00.134Z,10.35
2017-11-27T04:28:27.594Z,10.02
2017-11-27T04:30:55.146Z,10.10
2017-11-27T04:33:23.510Z,11.05
2017-11-27T04:35:51.738Z,11.88
2017-11-27T04:38:19.218Z,11.85
2017-11-27T04:40:47.451Z,12.02
2017-11-27T04:43:14.919Z,10.50
2017-11-27T04:45:43.185Z,11.15
2017-11-27T04:48:11.438Z,10.38
2017-11-27T04:50:39.695Z,11.05
2017-11-27T04:53:07.922Z,10.70
2017-11-27T04:55:35.510Z,10.52
2017-11-27T04:58:03.735Z,11.10
2017-11-27T05:00:31.299Z,10.13
2017-11-27T05:02:59.530Z,9.63
2017-11-27T05:05:26.997Z,7.68
2017-11-27T05:07:55.243Z,9.70
2017-11-27T05:10:22.801Z,9.70
2017-11-27T05:12:51.022Z,8.00
2017-11-27T05:15:18.490Z,9.35
2017-11-27T05:17:45.952Z,7.72
2017-11-27T05:20:14.189Z,9.13
2017-11-27T05:22:41.650Z,7.68
2017-11-27T05:25:09.911Z,7.47
2017-11-27T05:27:38.139Z,6.80
2017-11-27T05:30:05.593Z,7.60
2017-11-27T05:32:33.155Z,7.78
2017-11-27T05:35:01.414Z,7.37
2017-11-27T05:37:29.677Z,8.80
2017-11-27T05:39:58.038Z,7.32
2017-11-27T05:42:26.293Z,7.70
2017-11-27T05:44:54.525Z,7.35
2017-11-27T05:47:22.093Z,7.72
2017-11-27T05:49:50.361Z,7.45
2017-11-27T05:52:18.626Z,7.28
2017-11-27T05:54:46.854Z,7.07
2017-11-27T05:57:14.327Z,7.78
2017-11-27T05:59:42.565Z,7.35
2017-11-27T06:02:10.123Z,6.95
2017-11-27T06:04:38.350Z,6.80
2017-11-27T06:07:05.827Z,6.28
2017-11-27T06:09:34.087Z,6.10
2017-11-27T06:12:02.350Z,5.68
2017-11-27T06:14:30.594Z,5.12
2017-11-27T06:16:59.562Z,6.50
2017-11-27T06:19:27.028Z,4.65
2017-11-27T06:21:55.282Z,5.80
2017-11-27T06:24:23.511Z,4.90
2017-11-27T06:26:50.982Z,5.15
2017-11-27T06:29:18.527Z,4.90
2017-11-27T06:31:46.069Z,5.57
2017-11-27T06:34:14.334Z,4.62
2017-11-27T06:36:42.574Z,4.07
2017-11-27T06:39:10.142Z,4.57
2017-11-27T06:41:38.365Z,5.00
2017-11-27T06:44:05.838Z,4.30
2017-11-27T06:46:34.064Z,4.95
2017-11-27T06:49:01.526Z,4.28
2017-11-27T06:51:28.998Z,4.65
2017-11-27T06:53:56.539Z,3.67
2017-11-27T06:56:24.782Z,4.57
2017-11-27T06:58:53.051Z,4.60
2017-11-27T07:01:21.274Z,4.05
2017-11-27T07:03:48.725Z,4.07
2017-11-27T07:06:16.287Z,3.55
2017-11-27T07:08:43.743Z,3.55
2017-11-27T07:11:11.963Z,3.40
2017-11-27T07:13:39.634Z,4.20
2017-11-27T07:16:07.898Z,3.33
2017-11-27T07:18:36.127Z,4.43
2017-11-27T07:21:03.698Z,3.22
2017-11-27T07:23:31.963Z,3.62
2017-11-27T07:26:00.219Z,4.05
2017-11-27T07:28:28.445Z,3.58
2017-11-27T07:30:55.906Z,2.45
2017-11-27T07:33:23.381Z,3.47
2017-11-27T07:35:50.845Z,3.80
2017-11-27T07:38:24.154Z,4.05
2017-11-27T07:40:51.640Z,4.10
2017-11-27T07:43:19.902Z,3.50
2017-11-27T07:45:48.159Z,3.40
2017-11-27T07:48:16.421Z,3.78
2017-11-27T07:50:44.681Z,3.53
2017-11-27T07:53:12.915Z,3.70
2017-11-27T07:55:40.378Z,3.72
2017-11-27T07:58:07.927Z,4.68
2017-11-27T08:00:36.183Z,3.90
2017-11-27T08:03:04.446Z,4.18
2017-11-27T08:05:32.685Z,4.10
2017-11-27T08:08:00.142Z,4.60
2017-11-27T08:10:28.413Z,4.47
2017-11-27T08:12:56.646Z,4.95
2017-11-27T08:15:24.102Z,4.70
2017-11-27T08:17:51.574Z,5.12
2017-11-27T08:20:19.098Z,4.62
2017-11-27T08:22:47.411Z,5.00
2017-11-27T08:25:14.889Z,4.55
2017-11-27T08:27:42.442Z,6.37
2017-11-27T08:30:10.697Z,5.00
2017-11-27T08:32:38.943Z,6.20
2017-11-27T08:35:06.409Z,5.43
2017-11-27T08:37:34.633Z,5.07
2017-11-27T08:40:02.110Z,5.18
2017-11-27T08:42:30.334Z,5.85
2017-11-27T08:44:57.786Z,5.60
2017-11-27T08:47:25.257Z,5.20
2017-11-27T08:49:53.478Z,6.45
2017-11-27T08:52:20.929Z,5.18
2017-11-27T08:54:48.490Z,5.75
2017-11-27T08:57:16.754Z,6.45
2017-11-27T08:59:44.999Z,6.70
2017-11-27T09:02:12.558Z,6.53
2017-11-27T09:04:40.786Z,6.55
2017-11-27T09:07:08.362Z,6.15
2017-11-27T09:09:36.581Z,6.07
2017-11-27T09:12:04.045Z,6.95
2017-11-27T09:14:31.510Z,6.80
2017-11-27T09:16:59.758Z,7.45
2017-11-27T09:19:27.985Z,6.70
2017-11-27T09:21:55.459Z,6.90
2017-11-27T09:24:23.698Z,7.25
2017-11-27T09:26:51.270Z,6.35
2017-11-27T09:29:19.489Z,6.20
2017-11-27T09:31:46.951Z,6.12
2017-11-27T09:34:14.510Z,7.10
2017-11-27T09:36:42.738Z,6.62
2017-11-27T09:39:10.215Z,6.60
2017-11-27T09:41:38.450Z,6.57
2017-11-27T09:44:05.926Z,7.28
2017-11-27T09:46:33.390Z,6.43
2017-11-27T09:49:00.850Z,5.87
2017-11-27T09:51:28.322Z,7.18
2017-11-27T09:53:55.773Z,6.30
2017-11-27T09:56:24.012Z,6.78
2017-11-27T09:58:51.582Z,8.00
2017-11-27T10:01:19.806Z,6.97
2017-11-27T10:03:47.397Z,6.85
2017-11-27T10:06:15.646Z,6.20
2017-11-27T10:08:43.867Z,7.05
2017-11-27T10:11:11.347Z,6.93
2017-11-27T10:13:39.612Z,6.18
2017-11-27T10:16:07.866Z,6.70
2017-11-27T10:18:36.130Z,6.55
2017-11-27T10:21:04.386Z,5.68
2017-11-27T10:23:32.651Z,6.55
2017-11-27T10:26:00.878Z,7.50
2017-11-27T10:28:28.333Z,6.80
2017-11-27T10:30:55.890Z,6.43
2017-11-27T10:33:24.159Z,6.20
2017-11-27T10:35:52.374Z,5.65
2017-11-27T10:38:19.874Z,6.03
2017-11-27T10:40:48.114Z,7.30
2017-11-27T10:43:16.374Z,6.43
2017-11-27T10:45:44.618Z,5.85
2017-11-27T10:48:12.086Z,6.37
2017-11-27T10:50:40.306Z,5.37
2017-11-27T10:53:07.880Z,5.45
2017-11-27T10:55:36.107Z,6.35
2017-11-27T10:58:03.561Z,5.60
2017-11-27T11:00:47.407Z,5.80
2017-11-27T11:03:15.631Z,4.65
2017-11-27T11:05:43.106Z,5.15
2017-11-27T11:08:11.332Z,4.75
2017-11-27T11:10:38.809Z,4.32
2017-11-27T11:13:07.034Z,4.97
2017-11-27T11:15:34.495Z,3.65
2017-11-27T11:18:01.966Z,3.97
2017-11-27T11:20:29.529Z,3.70
2017-11-27T11:22:57.091Z,3.45
2017-11-27T11:25:24.548Z,3.22
2017-11-27T11:27:52.021Z,4.95
2017-11-27T11:30:19.485Z,4.82
2017-11-27T11:32:46.939Z,4.87
2017-11-27T11:35:14.409Z,5.15
2017-11-27T11:37:41.889Z,4.47
2017-11-27T11:40:10.131Z,5.45
2017-11-27T11:42:37.694Z,4.60
2017-11-27T11:45:05.952Z,3.58
2017-11-27T11:47:34.177Z,4.22
2017-11-27T11:50:01.664Z,4.47
2017-11-27T11:52:30.014Z,3.85
2017-11-27T11:54:58.280Z,4.15
2017-11-27T11:57:26.535Z,5.20
2017-11-27T11:59:54.766Z,5.47
2017-11-27T12:02:22.227Z,4.85
2017-11-27T12:04:49.686Z,4.40
2017-11-27T12:07:17.941Z,4.30
2017-11-27T12:09:46.198Z,4.90
2017-11-27T12:12:14.422Z,4.18
2017-11-27T12:14:41.882Z,4.78
2017-11-27T12:17:09.365Z,4.87
2017-11-27T12:19:36.887Z,4.85
2017-11-27T12:22:05.114Z,4.10
2017-11-27T12:24:32.585Z,4.65
2017-11-27T12:27:00.834Z,4.37
2017-11-27T12:29:28.387Z,3.87
2017-11-27T12:31:56.605Z,3.70
2017-11-27T12:34:24.083Z,4.37
2017-11-27T12:36:51.534Z,4.25
2017-11-27T12:39:19.761Z,4.32
2017-11-27T12:41:47.234Z,4.00
2017-11-27T12:44:15.494Z,4.00
2017-11-27T12:46:43.720Z,5.47
2017-11-27T12:49:11.307Z,4.15
2017-11-27T12:51:39.522Z,3.78
2017-11-27T12:54:06.979Z,4.10
2017-11-27T12:56:34.438Z,4.35
2017-11-27T12:59:02.662Z,4.65
2017-11-27T13:01:30.127Z,5.05
2017-11-27T13:03:57.682Z,4.65
2017-11-27T13:06:25.910Z,4.57
2017-11-27T13:08:53.386Z,4.40
2017-11-27T13:11:21.633Z,4.45
2017-11-27T13:13:49.190Z,4.93
2017-11-27T13:16:17.454Z,5.07
2017-11-27T13:18:45.702Z,4.20
2017-11-27T13:21:13.164Z,4.55
2017-11-27T13:23:41.390Z,4.97
2017-11-27T13:26:08.869Z,4.90
2017-11-27T13:28:36.326Z,5.20
2017-11-27T13:31:03.782Z,5.68
2017-11-27T13:33:31.278Z,6.40
2017-11-27T13:35:59.517Z,5.93
2017-11-27T13:38:27.002Z,5.45
2017-11-27T13:40:55.206Z,5.32
2017-11-27T13:43:22.678Z,4.97
2017-11-27T13:45:50.229Z,5.30
2017-11-27T13:48:18.491Z,6.05
2017-11-27T13:50:46.722Z,4.15
2017-11-27T13:53:14.190Z,4.60
2017-11-27T13:55:42.447Z,5.30
2017-11-27T13:58:10.665Z,5.85
2017-11-27T14:00:38.150Z,5.40
2017-11-27T14:03:06.374Z,4.95
2017-11-27T14:05:33.829Z,5.43
2017-11-27T14:08:01.394Z,5.28
2017-11-27T14:10:29.658Z,5.35
2017-11-27T14:12:57.875Z,6.47
2017-11-27T14:15:25.343Z,5.65
2017-11-27T14:17:52.805Z,6.22
2017-11-27T14:20:21.058Z,6.72
2017-11-27T14:22:49.295Z,5.40
2017-11-27T14:25:16.745Z,5.75
2017-11-27T14:27:44.298Z,6.62
2017-11-27T14:30:12.529Z,7.05
2017-11-27T14:32:39.990Z,6.97
2017-11-27T14:35:07.542Z,5.55
2017-11-27T14:37:35.774Z,6.43
2017-11-27T14:40:03.246Z,7.82
2017-11-27T14:42:31.506Z,7.43
2017-11-27T14:44:59.734Z,7.97
2017-11-27T14:47:27.191Z,7.50
2017-11-27T14:49:54.751Z,7.55
2017-11-27T14:52:23.020Z,6.18
2017-11-27T14:54:51.259Z,7.68
2017-11-27T14:57:18.734Z,7.30
2017-11-27T14:59:46.262Z,7.10
2017-11-27T15:02:14.482Z,7.70
2017-11-27T15:04:41.958Z,8.18
2017-11-27T15:07:10.202Z,8.90
2017-11-27T15:09:37.762Z,8.32
2017-11-27T15:12:05.998Z,8.38
2017-11-27T15:14:33.565Z,8.45
2017-11-27T15:17:01.832Z,8.55
2017-11-27T15:19:30.066Z,8.30
2017-11-27T15:21:57.630Z,9.68
2017-11-27T15:24:25.890Z,9.27
2017-11-27T15:26:54.109Z,8.82
2017-11-27T15:29:21.692Z,9.05
2017-11-27T15:31:49.923Z,8.40
2017-11-27T15:34:17.398Z,13.20
2017-11-27T15:36:45.650Z,10.90
2017-11-27T15:39:13.203Z,10.65
2017-11-27T15:41:41.466Z,10.75
2017-11-27T15:44:09.775Z,11.60
2017-11-27T15:46:37.234Z,10.55
2017-11-27T15:49:04.703Z,5.20
2017-11-27T15:51:32.938Z,5.82
2017-11-27T15:54:00.402Z,6.90
2017-11-27T15:56:28.631Z,7.82
2017-11-27T15:58:56.086Z,8.85
2017-11-27T16:01:23.570Z,9.57
2017-11-27T16:03:51.094Z,10.95
2017-11-27T16:06:19.321Z,12.18
2017-11-27T16:08:46.800Z,10.80
2017-11-27T16:11:15.054Z,10.50
2017-11-27T16:13:43.902Z,11.30
2017-11-27T16:16:12.163Z,11.55
2017-11-27T16:18:39.656Z,11.43
2017-11-27T16:21:07.116Z,11.90
2017-11-27T16:23:34.586Z,12.37
2017-11-27T16:26:02.158Z,12.95
2017-11-27T16:28:30.386Z,11.55
2017-11-27T16:30:57.860Z,13.73
2017-11-27T16:33:26.087Z,14.13
2017-11-27T16:35:53.668Z,11.35
2017-11-27T16:38:21.956Z,12.82
2017-11-27T16:40:49.427Z,13.27
2017-11-27T16:43:16.894Z,12.50
2017-11-27T16:45:44.397Z,13.43
2017-11-27T16:48:11.857Z,12.80
2017-11-27T16:50:39.338Z,13.07
2017-11-27T16:53:07.599Z,13.77
2017-11-27T16:55:35.833Z,15.85
2017-11-27T16:58:03.404Z,13.77
2017-11-27T17:00:31.659Z,12.75
2017-11-27T17:02:59.881Z,14.87
2017-11-27T17:05:27.370Z,17.25
2017-11-27T17:07:55.678Z,16.15
2017-11-27T17:10:23.142Z,15.02
2017-11-27T17:12:50.606Z,15.75
2017-11-27T17:15:18.917Z,16.80
2017-11-27T17:17:46.412Z,19.30
2017-11-27T17:20:14.646Z,20.30
2017-11-27T17:22:42.114Z,19.65
2017-11-27T17:25:10.352Z,19.15
2017-11-27T17:27:37.818Z,19.87
2017-11-27T17:30:06.067Z,19.08
2017-11-27T17:32:33.531Z,19.02
2017-11-27T17:35:00.993Z,18.85
2017-11-27T17:37:28.463Z,19.60
2017-11-27T17:39:55.927Z,21.05
2017-11-27T17:42:23.395Z,17.65
2017-11-27T17:44:51.639Z,16.75
2017-11-27T17:47:19.867Z,15.15
2017-11-27T17:49:47.334Z,15.25
2017-11-27T17:52:14.807Z,18.58
2017-11-27T17:54:42.280Z,17.20
2017-11-27T17:57:09.772Z,17.40
2017-11-27T17:59:38.026Z,15.55
2017-11-27T18:02:06.259Z,15.95
2017-11-27T18:04:33.734Z,16.55
2017-11-27T18:07:01.987Z,16.15
2017-11-27T18:09:30.223Z,17.48
2017-11-27T18:11:57.710Z,18.67
2017-11-27T18:14:25.174Z,15.65
2017-11-27T18:16:52.638Z,17.25
2017-11-27T18:19:20.117Z,16.60
2017-11-27T18:21:48.367Z,18.45
2017-11-27T18:24:15.918Z,16.08
2017-11-27T18:26:44.181Z,17.77
2017-11-27T18:29:12.416Z,15.45
2017-11-27T18:31:39.982Z,14.85
2017-11-27T18:34:08.219Z,16.52
2017-11-27T18:36:35.686Z,16.10
2017-11-27T18:39:03.955Z,17.30
2017-11-27T18:41:32.206Z,18.37
2017-11-27T18:44:00.466Z,21.98
2017-11-27T18:46:28.694Z,17.37
2017-11-27T18:48:56.159Z,4.80
2017-11-27T18:51:24.386Z,5.25
2017-11-27T18:53:51.863Z,6.75
2017-11-27T18:56:20.099Z,6.40
2017-11-27T18:58:47.553Z,9.60
2017-11-27T19:01:15.120Z,12.45
2017-11-27T19:03:43.352Z,12.15
2017-11-27T19:06:10.851Z,14.38
2017-11-27T19:08:38.360Z,16.00
2017-11-27T19:11:06.668Z,16.12
2017-11-27T19:13:34.122Z,7.18
2017-11-27T19:16:01.598Z,7.70
2017-11-27T19:18:29.849Z,7.50
2017-11-27T19:20:57.409Z,4.90
2017-11-27T19:23:25.767Z,5.85
2017-11-27T19:25:53.227Z,7.30
2017-11-27T19:28:20.682Z,8.70
2017-11-27T19:30:48.166Z,10.77
2017-11-27T19:33:15.629Z,13.57
2017-11-27T19:35:43.113Z,15.20
2017-11-27T19:38:10.583Z,16.70
2017-11-27T19:40:38.051Z,18.20
2017-11-27T19:43:05.531Z,16.35
2017-11-27T19:45:32.991Z,14.65
2017-11-27T19:48:00.450Z,16.15
2017-11-27T19:50:27.936Z,15.63
2017-11-27T19:52:56.167Z,15.15
2017-11-27T19:55:23.729Z,17.12
2017-11-27T19:57:51.988Z,17.23
2017-11-27T20:00:20.251Z,4.57
2017-11-27T20:02:48.470Z,4.87
2017-11-27T20:05:15.950Z,3.08
2017-11-27T20:07:44.178Z,3.37
2017-11-27T20:10:11.663Z,2.70
2017-11-27T20:12:39.890Z,3.12
2017-11-27T20:15:07.449Z,3.53
2017-11-27T20:17:34.929Z,3.12
2017-11-27T20:20:02.456Z,2.50
2017-11-27T20:22:29.986Z,2.75
2017-11-27T20:24:58.250Z,3.40
2017-11-27T20:27:25.687Z,3.40
2017-11-27T20:29:53.938Z,3.55
2017-11-27T20:32:21.430Z,3.95
2017-11-27T20:34:48.889Z,5.47
2017-11-27T20:37:16.384Z,4.32
2017-11-27T20:39:44.607Z,4.35
2017-11-27T20:42:12.077Z,5.32
2017-11-27T20:44:40.294Z,5.05
2017-11-27T20:47:07.770Z,5.90
2017-11-27T20:49:35.998Z,6.00
2017-11-27T20:52:03.461Z,7.82
2017-11-27T20:54:30.934Z,7.68
2017-11-27T20:56:58.458Z,8.10
2017-11-27T20:59:26.749Z,10.30
2017-11-27T21:01:54.227Z,11.73
2017-11-27T21:04:21.811Z,13.07
2017-11-27T21:06:50.174Z,12.98
2017-11-27T21:09:18.410Z,12.98
2017-11-27T21:11:45.869Z,12.73
2017-11-27T21:14:14.116Z,12.82
2017-11-27T21:16:43.095Z,11.48
2017-11-27T21:19:10.590Z,7.10
2017-11-27T21:21:38.054Z,7.15
2017-11-27T21:24:05.539Z,6.18
2017-11-27T21:26:33.762Z,5.10
2017-11-27T21:29:01.338Z,5.40
2017-11-27T21:31:29.598Z,4.97
2017-11-27T21:33:57.902Z,3.62
2017-11-27T21:36:25.366Z,3.72
2017-11-27T21:38:52.839Z,2.97
2017-11-27T21:41:21.102Z,4.47
2017-11-27T21:43:49.364Z,3.25
2017-11-27T21:46:17.638Z,3.00
2017-11-27T21:48:45.859Z,2.25
2017-11-27T21:51:13.319Z,2.25
2017-11-27T21:53:40.785Z,2.15
2017-11-27T21:56:08.258Z,1.90
2017-11-27T21:58:35.714Z,1.60
2017-11-27T22:01:03.190Z,1.50
2017-11-27T22:03:31.437Z,1.50
2017-11-27T22:05:59.664Z,1.60
2017-11-27T22:08:27.173Z,1.52
2017-11-27T22:10:54.766Z,1.50
2017-11-27T22:13:22.229Z,1.95
2017-11-27T22:15:49.701Z,1.90
2017-11-27T22:18:17.222Z,1.90
2017-11-27T22:20:45.493Z,2.35
2017-11-27T22:23:13.758Z,2.00
2017-11-27T22:25:42.028Z,1.90
2017-11-27T22:28:10.278Z,1.70
2017-11-27T22:30:38.525Z,2.35
2017-11-27T22:33:06.762Z,2.08
2017-11-27T22:35:34.236Z,2.12
2017-11-27T22:38:02.494Z,3.17
2017-11-27T22:40:30.714Z,3.80
2017-11-27T22:42:58.204Z,2.83
2017-11-27T22:45:25.666Z,2.65
2017-11-27T22:47:53.171Z,2.35
2017-11-27T22:50:21.440Z,2.40
2017-11-27T22:52:49.659Z,2.80
2017-11-27T22:55:17.114Z,2.40
2017-11-27T22:57:44.586Z,2.30
2017-11-27T23:00:12.838Z,2.55
2017-11-27T23:02:41.058Z,2.90
2017-11-27T23:05:08.533Z,2.90
2017-11-27T23:07:35.982Z,3.10
2017-11-27T23:10:04.202Z,2.30
2017-11-27T23:12:31.682Z,2.40
2017-11-27T23:14:59.943Z,2.65
2017-11-27T23:17:28.202Z,2.55
2017-11-27T23:19:56.434Z,3.37
2017-11-27T23:22:23.914Z,2.80
2017-11-27T23:24:52.138Z,2.80
2017-11-27T23:27:19.594Z,2.70
2017-11-27T23:29:47.062Z,2.08
2017-11-27T23:32:14.594Z,3.10
2017-11-27T23:34:42.813Z,2.30
2017-11-27T23:37:10.301Z,2.55
2017-11-27T23:39:38.526Z,2.95
2017-11-27T23:42:06.763Z,2.90
2017-11-27T23:44:34.214Z,2.87
2017-11-27T23:47:01.714Z,3.17
2017-11-27T23:49:29.170Z,2.50
2017-11-27T23:51:56.645Z,2.83
2017-11-27T23:54:24.130Z,3.08
2017-11-27T23:56:52.385Z,2.97
2017-11-27T23:59:20.609Z,3.50
